Time;durP1;ratioP1;P1;durP2;ratioP2;P2;SDS_P1;SDS_P2;PMS_P1;PMS_P2;Temp;Humidity;BMP_temperature;BMP_pressure;BME280_temperature;BME280_humidity;BME280_pressure;Samples;Min_cycle;Max_cycle;Signal;HPM_P1;HPM_P2
2022/02/11 00:02:22;;;;;;;12.90;1.55;;;28.20;20.80;;;;;;5008306;28;20074;-64
2022/02/11 00:05:11;;;;;;;16.98;1.70;;;28.10;20.70;;;;;;4991359;28;20126;-64
2022/02/11 00:07:39;;;;;;;13.13;1.90;;;28.00;20.90;;;;;;5006205;28;20082;-62
2022/02/11 00:10:07;;;;;;;17.42;1.90;;;28.00;20.60;;;;;;5008745;28;20104;-64
2022/02/11 00:12:34;;;;;;;14.95;2.20;;;27.90;20.60;;;;;;4991880;28;20085;-64
2022/02/11 00:15:34;;;;;;;17.00;2.90;;;27.90;20.60;;;;;;5008617;28;20122;-67
2022/02/11 00:17:54;;;;;;;14.63;3.15;;;27.80;20.60;;;;;;5006983;28;20105;-65
2022/02/11 00:20:22;;;;;;;17.60;1.70;;;27.70;20.60;;;;;;4998997;28;20106;-64
2022/02/11 00:22:49;;;;;;;12.88;1.55;;;27.50;20.60;;;;;;5070764;28;20073;-66
2022/02/11 00:25:17;;;;;;;15.30;1.10;;;27.40;20.90;;;;;;5070516;28;20144;-63
2022/02/11 00:35:47;;;;;;;14.05;2.05;;;27.20;21.60;;;;;;5069315;28;20092;-63
2022/02/11 00:38:20;;;;;;;13.35;1.90;;;27.20;21.60;;;;;;5068974;28;20519;-64
2022/02/11 00:47:03;;;;;;;8.57;2.00;;;27.00;21.80;;;;;;5070089;28;20115;-63
2022/02/11 01:03:23;;;;;;;10.77;1.98;;;26.40;22.20;;;;;;5068328;28;20186;-64
2022/02/11 01:05:49;;;;;;;11.60;1.48;;;26.30;22.30;;;;;;5069797;28;20172;-63
2022/02/11 01:08:16;;;;;;;9.90;1.65;;;26.10;22.10;;;;;;5067217;28;20075;-65
2022/02/11 01:10:44;;;;;;;6.50;1.65;;;26.00;22.40;;;;;;5051547;28;20124;-65
2022/02/11 01:13:10;;;;;;;10.93;2.25;;;25.90;22.60;;;;;;5068563;28;20509;-63
2022/02/11 01:15:40;;;;;;;17.20;2.17;;;25.80;22.90;;;;;;5068465;28;20482;-64
2022/02/11 01:18:09;;;;;;;11.00;2.60;;;25.70;22.90;;;;;;5068433;28;20474;-65
2022/02/11 01:20:50;;;;;;;8.40;2.10;;;25.60;23.10;;;;;;5052308;28;20435;-65
2022/02/11 01:26:04;;;;;;;10.32;2.30;;;25.40;23.70;;;;;;5068739;28;20073;-66
2022/02/11 01:31:22;;;;;;;13.35;2.30;;;25.10;24.20;;;;;;5070064;28;20100;-63
2022/02/11 01:34:04;;;;;;;21.58;2.78;;;24.90;24.50;;;;;;5068463;28;20534;-65
2022/02/11 01:36:54;;;;;;;22.75;3.22;;;24.80;24.60;;;;;;5069450;28;20092;-63
2022/02/11 01:50:26;;;;;;;21.90;7.32;;;24.40;25.60;;;;;;5073501;28;20096;-64
2022/02/11 02:00:55;;;;;;;16.92;5.25;;;23.90;26.30;;;;;;5073045;28;20085;-64
2022/02/11 02:33:22;;;;;;;25.98;4.88;;;22.90;27.40;;;;;;5071860;28;20168;-65
2022/02/11 03:00:20;;;;;;;50.05;7.20;;;21.50;30.10;;;;;;5070656;28;20486;-64
2022/02/11 03:50:06;;;;;;;57.28;11.02;;;20.20;31.80;;;;;;5071333;28;20108;-64
2022/02/11 04:56:42;;;;;;;83.50;19.50;;;19.10;32.70;;;;;;5069779;28;20089;-65
2022/02/11 05:01:53;;;;;;;98.38;19.35;;;18.90;33.30;;;;;;5070431;28;20162;-67
2022/02/11 05:04:23;;;;;;;92.22;18.75;;;18.90;33.60;;;;;;5069547;28;20069;-69
2022/02/11 05:06:49;;;;;;;78.22;18.98;;;18.70;33.80;;;;;;5069907;28;20080;-66
2022/02/11 05:09:20;;;;;;;98.85;19.20;;;18.70;34.10;;;;;;5067896;28;20081;-66
2022/02/11 05:11:46;;;;;;;104.50;18.02;;;18.70;34.20;;;;;;5067514;28;20120;-65
2022/02/11 05:14:13;;;;;;;74.85;18.27;;;18.70;34.20;;;;;;5068686;28;20093;-64
2022/02/11 05:16:40;;;;;;;78.68;19.35;;;18.50;34.80;;;;;;5068677;28;20558;-67
2022/02/11 05:19:06;;;;;;;86.32;19.27;;;18.40;34.60;;;;;;5069561;28;20112;-64
2022/02/11 05:21:32;;;;;;;97.50;19.50;;;18.40;34.70;;;;;;5069444;28;20129;-69
2022/02/11 05:23:59;;;;;;;85.10;18.88;;;18.40;34.80;;;;;;5072013;28;20103;-64
2022/02/11 05:26:25;;;;;;;101.97;19.25;;;18.30;35.00;;;;;;5073051;28;20077;-66
2022/02/11 05:28:52;;;;;;;89.40;19.63;;;18.20;35.10;;;;;;5070661;28;20088;-66
2022/02/11 05:31:18;;;;;;;83.03;19.33;;;18.20;35.10;;;;;;5071767;28;20100;-66
2022/02/11 05:33:47;;;;;;;97.10;19.38;;;18.20;35.30;;;;;;5071952;28;20076;-63
2022/02/11 05:36:15;;;;;;;106.97;19.52;;;18.20;35.20;;;;;;5072014;28;20180;-64
2022/02/11 05:38:42;;;;;;;65.35;17.75;;;18.20;35.80;;;;;;5053766;28;20088;-66
2022/02/11 05:41:10;;;;;;;101.10;22.25;;;18.10;35.60;;;;;;5072012;28;20081;-66
2022/02/11 05:43:40;;;;;;;93.47;20.63;;;18.00;35.50;;;;;;5071647;28;20096;-67
2022/02/11 05:46:08;;;;;;;126.20;24.33;;;18.00;35.60;;;;;;5073167;28;20073;-65
2022/02/11 05:48:36;;;;;;;88.75;19.88;;;18.00;35.40;;;;;;5055533;28;20449;-66
2022/02/11 05:51:03;;;;;;;87.07;21.08;;;18.00;35.50;;;;;;5071600;28;20502;-65
2022/02/11 05:53:29;;;;;;;112.68;20.58;;;17.90;35.40;;;;;;5070733;28;20519;-64
2022/02/11 05:55:56;;;;;;;118.55;22.50;;;17.90;35.60;;;;;;5071695;28;20100;-64
2022/02/11 05:58:22;;;;;;;97.97;21.63;;;17.80;35.50;;;;;;5071603;28;20152;-68
2022/02/11 06:00:49;;;;;;;111.88;23.70;;;17.80;35.60;;;;;;5070988;28;20089;-62
2022/02/11 06:03:15;;;;;;;;;;;17.80;35.60;;;;;;5070710;28;20069;-66
2022/02/11 06:05:41;;;;;;;120.32;25.75;;;17.80;35.70;;;;;;5069886;28;19973;-64
2022/02/11 06:08:07;;;;;;;;;;;17.70;35.50;;;;;;5071565;28;20063;-64
2022/02/11 06:10:33;;;;;;;108.18;24.23;;;17.70;35.60;;;;;;5069424;28;19973;-65
2022/02/11 06:13:02;;;;;;;127.20;26.35;;;17.70;35.80;;;;;;5069690;28;20096;-64
2022/02/11 06:15:28;;;;;;;118.88;23.65;;;17.70;35.60;;;;;;5071029;28;20073;-64
2022/02/11 06:17:54;;;;;;;107.40;21.15;;;17.70;35.50;;;;;;5051216;28;20102;-63
2022/02/11 06:20:27;;;;;;;;;;;17.80;34.70;;;;;;5071140;28;20083;-64
2022/02/11 06:22:55;;;;;;;39.25;11.27;;;17.90;32.90;;;;;;5071665;28;19979;-63
2022/02/11 06:25:22;;;;;;;24.88;7.80;;;18.10;31.90;;;;;;5072859;28;20072;-65
2022/02/11 06:27:49;;;;;;;26.95;8.32;;;18.30;30.90;;;;;;5072756;28;20107;-64
2022/02/11 06:30:15;;;;;;;19.02;7.63;;;18.50;30.50;;;;;;5071264;28;20080;-65
2022/02/11 06:32:42;;;;;;;25.80;6.50;;;18.60;30.30;;;;;;5070934;28;20597;-62
2022/02/11 06:35:11;;;;;;;16.50;5.55;;;18.80;29.90;;;;;;5070654;28;20226;-63
2022/02/11 06:37:41;;;;;;;15.88;6.03;;;19.10;29.50;;;;;;5072854;28;20193;-60
2022/02/11 06:40:10;;;;;;;14.52;5.53;;;19.50;28.90;;;;;;5075449;28;20073;-63
2022/02/11 06:42:37;;;;;;;13.52;5.40;;;19.70;28.40;;;;;;5070533;28;20069;-60
2022/02/11 06:45:04;;;;;;;14.48;5.88;;;19.90;28.20;;;;;;5069924;28;20134;-65
2022/02/11 06:47:30;;;;;;;18.88;6.22;;;20.10;27.90;;;;;;5069926;28;20123;-63
2022/02/11 06:49:57;;;;;;;12.48;5.93;;;20.20;27.70;;;;;;5069663;28;20438;-62
2022/02/11 06:52:23;;;;;;;17.83;6.85;;;20.30;27.60;;;;;;5068780;28;20084;-62
2022/02/11 06:54:49;;;;;;;13.82;6.35;;;20.30;27.40;;;;;;5070164;28;20120;-64
2022/02/11 06:57:16;;;;;;;13.60;6.88;;;20.40;27.30;;;;;;5069700;28;20089;-60
2022/02/11 06:59:42;;;;;;;14.38;6.53;;;20.40;27.20;;;;;;5068496;28;20160;-63
2022/02/11 07:02:18;;;;;;;9.30;4.78;;;20.40;27.10;;;;;;5070788;28;20081;-63
2022/02/11 07:04:46;;;;;;;15.95;5.03;;;20.50;27.00;;;;;;5069423;28;20079;-64
2022/02/11 07:07:13;;;;;;;14.00;4.43;;;20.50;26.90;;;;;;5069014;28;20076;-62
2022/02/11 07:09:39;;;;;;;9.60;4.05;;;20.60;26.80;;;;;;5070494;28;20092;-63
2022/02/11 07:12:06;;;;;;;8.85;3.33;;;20.60;26.80;;;;;;5067363;28;20520;-61
2022/02/11 07:14:32;;;;;;;7.55;3.33;;;20.70;26.60;;;;;;5069393;28;20073;-62
2022/02/11 07:16:59;;;;;;;7.38;2.50;;;20.70;26.60;;;;;;5068843;28;20162;-62
2022/02/11 07:19:26;;;;;;;15.57;3.53;;;20.70;26.40;;;;;;5068800;28;20618;-62
2022/02/11 07:21:53;;;;;;;8.63;4.70;;;20.80;26.40;;;;;;5069715;28;20076;-63
2022/02/11 07:24:19;;;;;;;8.57;3.80;;;20.70;26.30;;;;;;5069204;28;20065;-62
2022/02/11 07:26:46;;;;;;;13.50;4.93;;;20.70;26.40;;;;;;5069051;28;20530;-64
2022/02/11 07:29:14;;;;;;;12.38;3.70;;;20.70;26.40;;;;;;5069372;28;20088;-62
2022/02/11 07:31:41;;;;;;;8.77;3.13;;;20.70;26.40;;;;;;5068942;28;20942;-62
2022/02/11 07:34:08;;;;;;;9.32;2.88;;;20.60;26.30;;;;;;5069168;28;20077;-63
2022/02/11 07:36:34;;;;;;;9.38;2.60;;;20.70;26.50;;;;;;5069617;28;20085;-62
2022/02/11 07:39:01;;;;;;;10.18;2.40;;;20.60;26.40;;;;;;5068614;28;20076;-63
2022/02/11 07:41:27;;;;;;;8.10;2.47;;;20.60;26.40;;;;;;5068071;28;20463;-63
2022/02/11 07:43:53;;;;;;;10.05;2.25;;;20.60;26.30;;;;;;5068645;28;20156;-66
2022/02/11 07:46:20;;;;;;;6.57;2.17;;;20.50;26.40;;;;;;5067572;28;20077;-65
2022/02/11 07:48:46;;;;;;;7.95;2.15;;;20.50;26.70;;;;;;5067527;28;20102;-63
2022/02/11 07:51:12;;;;;;;8.15;2.42;;;20.40;26.80;;;;;;5068360;28;20523;-63
2022/02/11 07:53:39;;;;;;;15.90;2.33;;;20.30;26.90;;;;;;5069281;28;20104;-62
2022/02/11 07:56:07;;;;;;;5.75;2.00;;;20.30;27.10;;;;;;5067679;28;20095;-62
2022/02/11 07:58:34;;;;;;;7.80;1.83;;;20.20;27.10;;;;;;5069403;28;20531;-63
2022/02/11 08:01:00;;;;;;;5.70;1.90;;;20.10;27.00;;;;;;5068292;28;20073;-63
2022/02/11 08:03:27;;;;;;;5.47;1.60;;;20.10;27.00;;;;;;5069250;28;20112;-63
2022/02/11 08:05:54;;;;;;;14.52;1.70;;;20.00;27.10;;;;;;5069443;28;20687;-65
2022/02/11 08:08:23;;;;;;;2.47;1.00;;;19.90;27.30;;;;;;5051653;28;20076;-62
2022/02/11 08:10:49;;;;;;;8.35;1.70;;;19.80;27.60;;;;;;5067712;28;20101;-62
2022/02/11 08:13:15;;;;;;;9.65;1.63;;;19.80;27.90;;;;;;5068295;28;20588;-64
2022/02/11 08:15:42;;;;;;;14.75;1.30;;;19.60;28.00;;;;;;5066544;28;20096;-64
2022/02/11 08:18:08;;;;;;;5.47;1.30;;;19.50;28.30;;;;;;5068921;28;20112;-63
2022/02/11 08:20:35;;;;;;;5.80;1.40;;;19.40;28.40;;;;;;5068579;28;20093;-62
2022/02/11 08:23:01;;;;;;;6.68;1.75;;;19.40;28.70;;;;;;5068154;28;20077;-62
2022/02/11 08:25:27;;;;;;;;;;;19.30;28.60;;;;;;5067903;28;20085;-61
2022/02/11 08:27:54;;;;;;;8.77;1.70;;;19.30;29.00;;;;;;5069738;28;19963;-64
2022/02/11 08:30:21;;;;;;;2.97;1.10;;;19.20;29.80;;;;;;5067899;28;20097;-61
2022/02/11 08:32:48;;;;;;;4.45;1.48;;;19.20;29.60;;;;;;5068794;28;20073;-61
2022/02/11 08:35:14;;;;;;;8.25;1.40;;;19.00;29.90;;;;;;5069076;28;20080;-62
2022/02/11 08:37:40;;;;;;;4.30;1.30;;;19.00;29.90;;;;;;5067118;28;20458;-62
2022/02/11 08:40:07;;;;;;;12.48;1.85;;;19.00;30.00;;;;;;5068289;28;20065;-62
2022/02/11 08:42:34;;;;;;;6.28;1.77;;;19.00;30.50;;;;;;5068295;28;20068;-61
2022/02/11 08:45:01;;;;;;;10.77;1.40;;;18.80;30.30;;;;;;5049311;28;20218;-62
2022/02/11 08:47:27;;;;;;;8.60;1.45;;;18.80;30.40;;;;;;5067066;28;20069;-61
2022/02/11 08:49:53;;;;;;;;;;;18.80;30.60;;;;;;5068780;28;20108;-62
2022/02/11 08:52:25;;;;;;;5.40;1.35;;;18.70;30.40;;;;;;5067459;28;19957;-62
2022/02/11 08:54:52;;;;;;;5.20;1.33;;;18.60;30.30;;;;;;5069473;28;20668;-63
2022/02/11 08:57:18;;;;;;;4.40;1.50;;;18.50;31.20;;;;;;5069368;28;20101;-62
2022/02/11 08:59:45;;;;;;;;;;;18.50;31.20;;;;;;5072115;28;20079;-64
2022/02/11 09:02:11;;;;;;;4.88;1.48;;;18.40;32.10;;;;;;5071798;28;19957;-63
2022/02/11 09:04:39;;;;;;;7.57;1.70;;;18.30;31.80;;;;;;5071604;28;20093;-63
2022/02/11 09:07:07;;;;;;;6.18;1.58;;;18.20;31.80;;;;;;5071671;28;20073;-63
2022/02/11 09:09:34;;;;;;;9.90;1.60;;;18.00;31.90;;;;;;5070582;28;20081;-63
2022/02/11 09:12:00;;;;;;;10.98;1.92;;;17.80;32.00;;;;;;5072861;28;20660;-63
2022/02/11 09:14:27;;;;;;;13.93;2.65;;;17.80;32.70;;;;;;5069888;28;20538;-62
2022/02/11 09:16:53;;;;;;;14.15;2.30;;;17.80;32.40;;;;;;5069533;28;20085;-64
2022/02/11 09:19:20;;;;;;;11.40;2.13;;;17.70;32.60;;;;;;5070733;28;20105;-64
2022/02/11 09:21:46;;;;;;;16.67;2.40;;;17.70;32.80;;;;;;5072599;28;20148;-63
2022/02/11 09:24:12;;;;;;;;;;;17.60;33.00;;;;;;5071974;28;20075;-63
2022/02/11 09:26:39;;;;;;;15.32;1.85;;;17.50;33.10;;;;;;5071636;28;20542;-63
2022/02/11 09:29:06;;;;;;;12.10;1.95;;;17.50;33.20;;;;;;5070951;28;20561;-62
2022/02/11 09:31:33;;;;;;;11.63;2.10;;;17.60;33.10;;;;;;5071211;28;20115;-65
2022/02/11 09:34:04;;;;;;;19.05;2.58;;;17.50;33.00;;;;;;5071115;28;20593;-61
2022/02/11 09:36:35;;;;;;;13.82;2.40;;;17.50;33.40;;;;;;5069544;28;20096;-63
2022/02/11 09:39:03;;;;;;;11.55;1.50;;;17.40;33.40;;;;;;5044059;28;20124;-63
2022/02/11 09:41:31;;;;;;;6.25;1.67;;;17.30;33.90;;;;;;5068648;28;20065;-62
2022/02/11 09:44:00;;;;;;;8.18;1.92;;;17.20;33.80;;;;;;5071619;28;20147;-60
2022/02/11 09:46:35;;;;;;;11.63;1.75;;;17.20;33.80;;;;;;5071177;28;20080;-65
2022/02/11 09:49:01;;;;;;;9.02;2.13;;;17.10;34.50;;;;;;5053870;28;20088;-64
2022/02/11 09:51:28;;;;;;;15.35;2.20;;;17.10;34.50;;;;;;5069573;28;20073;-63
2022/02/11 09:53:54;;;;;;;;;;;16.90;34.20;;;;;;5072769;28;20073;-64
2022/02/11 09:56:20;;;;;;;10.70;2.60;;;16.80;34.30;;;;;;5070503;28;20398;-63
2022/02/11 09:58:50;;;;;;;;;;;16.70;34.70;;;;;;5072371;28;20075;-62
2022/02/11 10:01:19;;;;;;;20.33;3.65;;;16.60;35.00;;;;;;5068424;28;19974;-65
2022/02/11 10:04:05;;;;;;;10.95;3.05;;;16.60;35.10;;;;;;5070605;28;20156;-63
2022/02/11 10:06:32;;;;;;;15.02;4.30;;;16.60;34.30;;;;;;5069188;28;20773;-62
2022/02/11 10:08:58;;;;;;;;;;;16.60;34.50;;;;;;5068296;28;20168;-62
2022/02/11 10:11:24;;;;;;;18.42;3.90;;;16.60;34.10;;;;;;5070890;28;19973;-63
2022/02/11 10:13:53;;;;;;;;;;;16.50;34.40;;;;;;5070476;28;20127;-63
2022/02/11 10:16:24;;;;;;;13.45;3.65;;;16.50;34.60;;;;;;5069942;28;20959;-63
2022/02/11 10:18:51;;;;;;;11.25;4.15;;;16.40;35.20;;;;;;5069455;28;20097;-63
2022/02/11 10:21:23;;;;;;;25.45;4.22;;;16.30;35.10;;;;;;5070246;28;20443;-60
2022/02/11 10:23:52;;;;;;;15.07;3.80;;;16.30;35.60;;;;;;5069297;28;20560;-64
2022/02/11 10:26:22;;;;;;;16.92;3.95;;;16.20;35.40;;;;;;5070600;28;20161;-61
2022/02/11 10:28:51;;;;;;;26.75;4.95;;;16.00;35.20;;;;;;5068340;28;20077;-64
2022/02/11 10:31:23;;;;;;;24.83;5.00;;;16.00;35.60;;;;;;5068680;28;20590;-62
2022/02/11 10:34:05;;;;;;;21.73;5.18;;;16.20;35.80;;;;;;5069690;28;20084;-65
2022/02/11 10:36:40;;;;;;;19.25;6.43;;;16.20;35.80;;;;;;5068955;28;20554;-60
2022/02/11 10:39:16;;;;;;;19.80;6.28;;;16.10;35.80;;;;;;5071194;28;20522;-64
2022/02/11 10:41:50;;;;;;;19.08;5.60;;;16.10;36.10;;;;;;5069848;28;20084;-62
2022/02/11 10:44:18;;;;;;;22.35;6.53;;;16.10;35.90;;;;;;5069233;28;20495;-62
2022/02/11 10:46:49;;;;;;;17.42;6.28;;;16.00;35.70;;;;;;5070301;28;20120;-62
2022/02/11 10:49:17;;;;;;;24.55;7.40;;;16.00;35.80;;;;;;5052918;28;20069;-62
2022/02/11 10:51:49;;;;;;;27.10;7.53;;;16.00;35.50;;;;;;5052840;28;20514;-63
2022/02/11 10:54:28;;;;;;;27.88;8.15;;;16.00;35.80;;;;;;5070041;28;20481;-62
2022/02/11 10:56:59;;;;;;;21.50;7.18;;;15.90;35.80;;;;;;5070215;28;20132;-63
2022/02/11 10:59:29;;;;;;;26.25;7.80;;;15.90;35.80;;;;;;5069539;28;20077;-63
2022/02/11 11:01:58;;;;;;;24.42;8.00;;;15.80;35.90;;;;;;5068267;28;20069;-61
2022/02/11 11:04:26;;;;;;;30.70;7.40;;;15.90;36.10;;;;;;5053518;28;20081;-60
2022/02/11 11:06:56;;;;;;;20.73;8.75;;;15.80;35.70;;;;;;5069548;28;20527;-62
2022/02/11 11:09:25;;;;;;;26.60;7.45;;;15.90;36.00;;;;;;5068999;28;20073;-60
2022/02/11 11:11:53;;;;;;;24.52;7.70;;;15.90;36.70;;;;;;5066901;28;20138;-60
2022/02/11 11:14:21;;;;;;;25.83;7.35;;;15.80;36.00;;;;;;5068861;28;20446;-63
2022/02/11 11:16:49;;;;;;;23.30;7.28;;;15.90;36.00;;;;;;5069366;28;20100;-62
2022/02/11 11:19:16;;;;;;;23.00;6.60;;;15.90;35.70;;;;;;5068925;28;20115;-62
2022/02/11 11:22:14;;;;;;;;;;;15.90;35.60;;;;;;5069607;28;20108;-62
2022/02/11 11:24:52;;;;;;;20.13;6.78;;;15.90;35.60;;;;;;5069493;28;20047;-63
2022/02/11 11:27:42;;;;;;;35.40;7.32;;;15.80;35.90;;;;;;5069561;28;20135;-62
2022/02/11 11:30:41;;;;;;;20.75;6.63;;;15.90;36.10;;;;;;5067932;28;20069;-62
2022/02/11 11:33:08;;;;;;;15.65;6.38;;;15.80;35.80;;;;;;5069316;28;20096;-62
2022/02/11 11:35:43;;;;;;;19.08;6.55;;;15.70;36.20;;;;;;5069196;28;20073;-62
2022/02/11 11:38:14;;;;;;;19.77;6.72;;;15.70;37.00;;;;;;5069107;28;20085;-62
2022/02/11 11:40:53;;;;;;;19.65;7.15;;;15.70;36.00;;;;;;5050864;28;20865;-62
2022/02/11 11:43:36;;;;;;;13.98;5.53;;;15.70;36.00;;;;;;5069784;28;20503;-62
2022/02/11 11:46:29;;;;;;;18.15;5.60;;;15.60;36.20;;;;;;5068425;28;20509;-62
2022/02/11 11:48:59;;;;;;;17.27;5.82;;;15.50;36.40;;;;;;5052735;28;20065;-62
2022/02/11 11:51:47;;;;;;;20.77;5.82;;;15.50;36.50;;;;;;5068795;28;20076;-63
2022/02/11 11:54:22;;;;;;;17.17;4.30;;;15.50;36.60;;;;;;5053378;28;20523;-61
2022/02/11 11:56:56;;;;;;;6.15;3.15;;;15.50;35.90;;;;;;5066910;28;20469;-64
2022/02/11 11:59:46;;;;;;;12.13;3.58;;;15.50;35.20;;;;;;5068014;28;20069;-63
2022/02/11 12:02:17;;;;;;;18.05;3.15;;;15.60;35.00;;;;;;5051863;28;20076;-61
2022/02/11 12:04:44;;;;;;;9.00;2.28;;;15.60;34.90;;;;;;5068754;28;20135;-61
2022/02/11 12:07:16;;;;;;;9.00;2.42;;;15.60;35.00;;;;;;5068006;28;20089;-62
2022/02/11 12:09:48;;;;;;;6.65;2.03;;;15.60;34.80;;;;;;5067083;28;20107;-62
2022/02/11 12:12:18;;;;;;;15.98;2.55;;;15.60;35.00;;;;;;5067148;28;20135;-62
2022/02/11 12:14:47;;;;;;;13.10;2.17;;;15.60;35.00;;;;;;5067257;28;20073;-62
2022/02/11 12:17:15;;;;;;;12.35;2.10;;;15.60;35.30;;;;;;5067617;28;20085;-61
2022/02/11 12:19:46;;;;;;;10.65;2.20;;;15.50;35.40;;;;;;5068699;28;20068;-63
2022/02/11 12:22:14;;;;;;;7.10;1.73;;;15.50;35.70;;;;;;5067655;28;20069;-62
2022/02/11 12:27:38;;;;;;;8.07;2.00;;;15.40;36.20;;;;;;5068531;28;20210;-62
2022/02/11 12:30:07;;;;;;;6.65;2.03;;;15.40;36.50;;;;;;5066831;28;20073;-61
2022/02/11 12:32:43;;;;;;;9.18;1.92;;;15.20;36.80;;;;;;5067324;28;20093;-63
2022/02/11 12:35:21;;;;;;;9.20;2.30;;;15.20;37.30;;;;;;5067078;28;20085;-61
2022/02/11 12:37:48;;;;;;;11.00;2.30;;;15.20;37.30;;;;;;5067677;28;20097;-61
2022/02/11 12:40:19;;;;;;;14.45;2.33;;;15.20;38.10;;;;;;5066161;28;20089;-61
2022/02/11 12:42:54;;;;;;;16.30;2.50;;;15.20;38.40;;;;;;5069329;28;20104;-60
2022/02/11 12:45:24;;;;;;;10.75;2.00;;;15.10;39.00;;;;;;5069239;28;20537;-64
2022/02/11 12:47:53;;;;;;;6.60;1.77;;;15.10;39.40;;;;;;5067641;28;20092;-62
2022/02/11 12:50:21;;;;;;;9.52;2.35;;;15.00;39.00;;;;;;5068862;28;20498;-63
2022/02/11 12:52:49;;;;;;;12.77;2.25;;;14.90;38.50;;;;;;5068002;28;20073;-62
2022/02/11 12:55:21;;;;;;;13.93;1.90;;;14.80;38.60;;;;;;5067469;28;20093;-63
2022/02/11 12:57:53;;;;;;;11.88;2.10;;;14.80;38.90;;;;;;5066859;28;20489;-62
2022/02/11 13:00:24;;;;;;;11.63;2.38;;;14.60;39.10;;;;;;5067991;28;20089;-64
2022/02/11 13:02:58;;;;;;;7.22;1.98;;;14.60;39.20;;;;;;5068827;28;20096;-64
2022/02/11 13:05:36;;;;;;;7.85;2.08;;;14.50;39.40;;;;;;5068011;28;20169;-63
2022/02/11 13:08:10;;;;;;;9.52;1.80;;;14.50;39.50;;;;;;5068843;28;20076;-62
2022/02/11 13:10:38;;;;;;;12.82;1.98;;;14.50;39.00;;;;;;5067221;28;20141;-63
2022/02/11 13:13:31;;;;;;;8.93;2.10;;;14.60;38.60;;;;;;5069206;28;20069;-62
2022/02/11 13:16:01;;;;;;;6.15;1.67;;;14.70;38.50;;;;;;5064210;28;20080;-62
2022/02/11 13:18:32;;;;;;;12.75;1.55;;;14.70;38.10;;;;;;5067385;28;20220;-63
2022/02/11 13:21:09;;;;;;;12.30;1.77;;;14.80;37.70;;;;;;5051415;28;20092;-62
2022/02/11 13:23:35;;;;;;;7.40;1.45;;;14.90;37.90;;;;;;5065331;28;20069;-62
2022/02/11 13:26:14;;;;;;;5.53;1.42;;;14.90;36.10;;;;;;5067303;28;20176;-62
2022/02/11 13:28:49;;;;;;;2.58;1.23;;;15.00;35.40;;;;;;5067040;28;20454;-62
2022/02/11 13:31:16;;;;;;;4.63;1.20;;;15.10;34.40;;;;;;5066493;28;20068;-62
2022/02/11 13:33:42;;;;;;;7.10;1.20;;;15.20;33.90;;;;;;5068041;28;20069;-64
2022/02/11 13:36:09;;;;;;;;;;;15.20;33.90;;;;;;5067454;28;20543;-62
2022/02/11 13:38:38;;;;;;;4.97;1.08;;;15.20;33.70;;;;;;5067606;28;19973;-61
2022/02/11 13:41:08;;;;;;;8.75;1.65;;;15.30;33.90;;;;;;5067543;28;20117;-63
2022/02/11 13:43:54;;;;;;;4.57;0.90;;;15.30;34.60;;;;;;5069725;28;20085;-63
2022/02/11 13:46:35;;;;;;;6.55;1.15;;;15.30;35.30;;;;;;5070043;28;20160;-64
2022/02/11 13:49:04;;;;;;;4.75;1.13;;;15.30;35.30;;;;;;5072326;28;20065;-63
2022/02/11 13:51:32;;;;;;;13.25;1.40;;;15.20;34.90;;;;;;5069985;28;20101;-64
2022/02/11 13:54:09;;;;;;;10.00;1.45;;;15.20;35.70;;;;;;5068427;28;20077;-63
2022/02/11 13:56:36;;;;;;;10.05;1.83;;;15.20;36.30;;;;;;5070436;28;20608;-64
2022/02/11 13:59:09;;;;;;;16.63;1.50;;;15.10;36.60;;;;;;5070927;28;20091;-62
2022/02/11 14:01:38;;;;;;;15.85;1.73;;;15.00;36.80;;;;;;5069851;28;20545;-62
2022/02/11 14:04:18;;;;;;;22.42;1.83;;;14.90;36.60;;;;;;5070982;28;20088;-64
2022/02/11 14:06:55;;;;;;;6.88;1.30;;;14.80;36.40;;;;;;5065097;28;20137;-63
2022/02/11 14:09:40;;;;;;;10.38;1.65;;;14.80;36.00;;;;;;5069789;28;20531;-62
2022/02/11 14:12:13;;;;;;;5.20;1.35;;;14.80;35.60;;;;;;5071103;28;20219;-64
2022/02/11 14:14:52;;;;;;;9.57;1.63;;;14.80;34.80;;;;;;5071017;28;20457;-64
2022/02/11 14:17:18;;;;;;;14.75;1.63;;;14.90;34.20;;;;;;5069516;28;20142;-61
2022/02/11 14:19:45;;;;;;;11.52;1.65;;;15.00;34.10;;;;;;5053839;28;20080;-62
2022/02/11 14:22:12;;;;;;;10.75;1.38;;;15.00;34.20;;;;;;5070521;28;20160;-63
2022/02/11 14:24:39;;;;;;;3.63;1.40;;;15.00;34.60;;;;;;5053477;28;20076;-64
2022/02/11 14:27:07;;;;;;;9.18;1.58;;;15.00;34.70;;;;;;5072197;28;20073;-62
2022/02/11 14:29:33;;;;;;;15.38;1.70;;;15.00;35.60;;;;;;5069407;28;20076;-63
2022/02/11 14:32:00;;;;;;;8.25;1.60;;;14.90;35.50;;;;;;5071912;28;20477;-62
2022/02/11 14:34:27;;;;;;;17.13;2.00;;;15.00;36.40;;;;;;5069912;28;20084;-63
2022/02/11 14:36:53;;;;;;;;;;;14.90;36.80;;;;;;5070972;28;20088;-64
2022/02/11 14:39:19;;;;;;;23.15;2.70;;;14.90;37.00;;;;;;5069077;28;20394;-62
2022/02/11 14:41:48;;;;;;;14.77;2.35;;;14.80;36.80;;;;;;5069044;28;20073;-60
2022/02/11 14:44:20;;;;;;;11.02;2.65;;;14.70;36.50;;;;;;5069733;28;20118;-64
2022/02/11 14:46:50;;;;;;;15.55;2.38;;;14.70;36.80;;;;;;5070638;28;20080;-65
2022/02/11 14:49:18;;;;;;;9.73;1.70;;;14.70;36.60;;;;;;5070474;28;20843;-63
2022/02/11 14:51:52;;;;;;;13.63;2.50;;;14.80;36.20;;;;;;5070238;28;20077;-60
2022/02/11 14:54:18;;;;;;;15.60;2.78;;;14.80;36.30;;;;;;5069569;28;20446;-62
2022/02/11 14:56:47;;;;;;;17.63;2.05;;;14.80;36.40;;;;;;5053549;28;20085;-62
2022/02/11 14:59:14;;;;;;;21.35;2.55;;;14.80;36.60;;;;;;5068520;28;20072;-63
2022/02/11 15:01:42;;;;;;;23.48;3.17;;;14.90;36.20;;;;;;5070189;28;20065;-63
2022/02/11 15:04:08;;;;;;;22.70;2.80;;;14.90;35.90;;;;;;5070076;28;20427;-64
2022/02/11 15:06:35;;;;;;;18.80;3.10;;;15.00;35.50;;;;;;5069633;28;20077;-65
2022/02/11 15:09:03;;;;;;;15.43;2.08;;;15.20;35.20;;;;;;5071240;28;20207;-63
2022/02/11 15:11:30;;;;;;;14.95;2.45;;;15.20;35.10;;;;;;5069592;28;20555;-66
2022/02/11 15:13:56;;;;;;;17.63;2.40;;;15.30;35.50;;;;;;5069431;28;20085;-61
2022/02/11 15:16:23;;;;;;;12.48;2.55;;;15.40;35.30;;;;;;5068147;28;20085;-63
2022/02/11 15:18:49;;;;;;;14.05;3.28;;;15.40;35.50;;;;;;5068213;28;20135;-61
2022/02/11 15:21:16;;;;;;;;;;;15.50;36.70;;;;;;5068119;28;20138;-65
2022/02/11 15:23:42;;;;;;;19.83;3.25;;;15.60;36.70;;;;;;5068196;28;19971;-62
2022/02/11 15:26:10;;;;;;;18.50;3.40;;;15.60;38.50;;;;;;5069989;28;20069;-61
2022/02/11 15:28:38;;;;;;;26.50;3.35;;;15.60;37.40;;;;;;5068278;28;20081;-60
2022/02/11 15:31:08;;;;;;;19.63;3.45;;;15.70;38.80;;;;;;5068155;28;20570;-62
2022/02/11 15:33:34;;;;;;;19.17;2.95;;;15.80;39.90;;;;;;5068918;28;20073;-64
2022/02/11 15:36:02;;;;;;;19.45;2.70;;;15.80;39.80;;;;;;5070196;28;20122;-62
2022/02/11 15:38:28;;;;;;;18.95;3.20;;;15.90;38.10;;;;;;5049668;28;20077;-63
2022/02/11 15:40:55;;;;;;;29.05;3.97;;;16.00;37.10;;;;;;5052068;28;20101;-63
2022/02/11 15:43:22;;;;;;;34.05;3.85;;;16.10;37.20;;;;;;5068737;28;20084;-63
2022/02/11 15:45:48;;;;;;;27.33;2.72;;;16.20;37.20;;;;;;5070348;28;21016;-63
2022/02/11 15:48:15;;;;;;;21.67;3.13;;;16.30;36.90;;;;;;5068709;28;20436;-64
2022/02/11 15:50:42;;;;;;;76.25;6.95;;;16.50;37.60;;;;;;5072228;28;20073;-65
2022/02/11 15:53:10;;;;;;;86.55;8.40;;;16.60;37.30;;;;;;5068274;28;20085;-63
2022/02/11 15:55:37;;;;;;;27.67;3.13;;;16.80;35.00;;;;;;5069031;28;20100;-60
2022/02/11 15:58:03;;;;;;;26.48;3.17;;;17.10;33.40;;;;;;5069125;28;20150;-62
2022/02/11 16:00:31;;;;;;;21.45;2.97;;;17.30;33.70;;;;;;5068534;28;20127;-64
2022/02/11 16:02:57;;;;;;;22.02;2.83;;;17.50;32.90;;;;;;5069649;28;20085;-62
2022/02/11 16:05:24;;;;;;;23.33;3.47;;;17.80;31.80;;;;;;5069510;28;20084;-67
2022/02/11 16:07:54;;;;;;;13.80;3.25;;;18.00;31.50;;;;;;5067765;28;20095;-63
2022/02/11 16:10:22;;;;;;;29.73;4.43;;;18.20;31.20;;;;;;5066275;28;20095;-63
2022/02/11 16:12:49;;;;;;;23.67;4.63;;;18.50;30.80;;;;;;5067579;28;20138;-63
2022/02/11 16:15:16;;;;;;;24.88;4.55;;;18.60;30.30;;;;;;5068018;28;20111;-62
2022/02/11 16:18:01;;;;;;;25.77;4.25;;;18.90;30.00;;;;;;5068834;28;20105;-62
2022/02/11 16:20:38;;;;;;;20.50;2.83;;;19.10;29.40;;;;;;5069379;28;20062;-64
2022/02/11 16:23:10;;;;;;;27.08;4.00;;;19.40;28.60;;;;;;5069621;28;20073;-62
2022/02/11 16:25:37;;;;;;;23.38;3.90;;;19.60;28.40;;;;;;5068660;28;20490;-64
2022/02/11 16:28:09;;;;;;;15.60;2.80;;;19.90;28.20;;;;;;5068657;28;20547;-63
2022/02/11 16:30:37;;;;;;;12.63;2.13;;;20.20;27.60;;;;;;5068555;28;20107;-62
2022/02/11 16:33:05;;;;;;;12.57;2.17;;;20.60;27.10;;;;;;5051209;28;20514;-65
2022/02/11 16:35:33;;;;;;;17.00;1.95;;;20.90;26.90;;;;;;5068737;28;20616;-63
2022/02/11 16:38:01;;;;;;;10.25;1.92;;;21.30;26.70;;;;;;5067818;28;20597;-63
2022/02/11 16:40:29;;;;;;;11.88;1.40;;;21.70;26.60;;;;;;5068255;28;20119;-62